Time;durP1;ratioP1;P1;durP2;ratioP2;P2;SDS_P1;SDS_P2;PMS_P1;PMS_P2;Temp;Humidity;BMP_temperature;BMP_pressure;BME280_temperature;BME280_humidity;BME280_pressure;Samples;Min_cycle;Max_cycle;Signal;HPM_P1;HPM_P2
2021/10/28 00:14:00;;;;;;;70.75;33.85;;;;;;;4.40;76.42;99841.62;2193019;80;20985;-67
2021/10/28 00:17:09;;;;;;;76.10;35.80;;;;;;;4.28;76.20;99840.13;2221248;80;21544;-66
2021/10/28 00:20:05;;;;;;;64.80;33.40;;;;;;;4.20;76.89;99836.80;2192872;80;21578;-66
2021/10/28 00:23:06;;;;;;;63.40;31.57;;;;;;;4.18;76.96;99841.60;2221093;80;20945;-66
2021/10/28 00:26:08;;;;;;;64.17;33.25;;;;;;;4.14;76.94;99833.87;2221091;80;20997;-67
2021/10/28 00:29:09;;;;;;;58.50;27.90;;;;;;;4.12;76.83;99839.98;2221191;80;20972;-66
2021/10/28 00:32:11;;;;;;;59.05;29.52;;;;;;;4.12;77.00;99849.06;2220846;80;21063;-67
2021/10/28 00:35:13;;;;;;;59.80;27.70;;;;;;;4.08;76.73;99848.28;2221068;80;21608;-66
2021/10/28 00:38:14;;;;;;;58.45;28.73;;;;;;;3.96;76.78;99850.63;2221093;80;21107;-67
2021/10/28 00:41:16;;;;;;;61.95;29.42;;;;;;;3.92;76.43;99849.00;2221042;80;20965;-67
2021/10/28 00:44:17;;;;;;;61.65;29.45;;;;;;;3.86;76.59;99855.57;2220957;80;20979;-67
2021/10/28 00:47:19;;;;;;;59.42;29.60;;;;;;;3.84;76.63;99853.91;2220969;80;20983;-67
2021/10/28 00:50:20;;;;;;;59.93;29.80;;;;;;;3.91;76.58;99858.11;2220961;80;21047;-67
2021/10/28 00:53:23;;;;;;;58.55;27.17;;;;;;;3.92;76.44;99848.12;2220934;80;21498;-67
2021/10/28 00:56:24;;;;;;;67.03;32.03;;;;;;;3.89;76.21;99842.98;2220917;80;21032;-67
2021/10/28 00:59:26;;;;;;;54.90;26.48;;;;;;;3.85;76.12;99842.63;2217363;80;21103;-67
2021/10/28 01:02:28;;;;;;;53.25;26.23;;;;;;;3.78;75.95;99841.89;2210429;81;20995;-67
2021/10/28 01:05:29;;;;;;;57.50;27.60;;;;;;;3.68;75.88;99837.70;2210697;81;21032;-67
2021/10/28 01:08:31;;;;;;;60.28;27.30;;;;;;;3.54;76.17;99833.61;2210312;81;21039;-67
2021/10/28 01:11:33;;;;;;;66.28;27.70;;;;;;;3.57;76.60;99835.30;2210267;81;21065;-67
2021/10/28 01:14:34;;;;;;;62.33;28.40;;;;;;;3.55;76.04;99832.74;2210195;81;21040;-67
2021/10/28 01:17:36;;;;;;;55.90;26.37;;;;;;;3.50;75.90;99838.88;2210314;81;21036;-66
2021/10/28 01:20:38;;;;;;;59.40;27.37;;;;;;;3.43;76.21;99833.80;2210142;81;21056;-67
2021/10/28 01:23:41;;;;;;;58.33;27.62;;;;;;;3.38;75.96;99838.64;2210436;81;21048;-67
2021/10/28 01:26:42;;;;;;;58.48;27.20;;;;;;;3.34;76.23;99838.27;2210072;81;21649;-66
2021/10/28 01:29:44;;;;;;;56.77;26.77;;;;;;;3.32;76.28;99840.89;2210150;81;21036;-66
2021/10/28 01:32:46;;;;;;;52.67;25.77;;;;;;;3.31;76.17;99843.05;2210300;81;21514;-67
2021/10/28 01:35:48;;;;;;;56.90;27.90;;;;;;;3.30;76.18;99841.33;2210450;81;21060;-67
2021/10/28 01:38:50;;;;;;;;;;;;;;;3.28;75.95;99841.80;2212902;81;21084;-67
2021/10/28 01:41:53;;;;;;;61.42;27.32;;;;;;;3.20;75.94;99848.83;2210119;81;20454;-66
2021/10/28 01:44:55;;;;;;;71.22;32.80;;;;;;;3.07;75.93;99858.06;2210307;81;21496;-67
2021/10/28 01:47:56;;;;;;;65.80;30.25;;;;;;;3.05;76.42;99850.77;2210312;81;20996;-67
2021/10/28 01:50:58;;;;;;;59.75;27.75;;;;;;;3.01;76.28;99854.27;2210216;81;21068;-67
2021/10/28 01:53:59;;;;;;;57.80;26.83;;;;;;;2.99;76.27;99854.75;2210658;81;20981;-67
2021/10/28 01:57:00;;;;;;;56.53;29.30;;;;;;;2.98;75.99;99857.36;2210142;81;21039;-66
2021/10/28 02:00:02;;;;;;;59.58;28.90;;;;;;;2.94;76.18;99856.11;2210116;80;21059;-67
2021/10/28 02:03:04;;;;;;;63.40;28.77;;;;;;;2.94;75.96;99852.22;2210245;81;20984;-67
2021/10/28 02:06:05;;;;;;;58.20;28.10;;;;;;;2.89;75.94;99852.71;2210485;81;20966;-66
2021/10/28 02:09:07;;;;;;;55.52;27.07;;;;;;;2.85;75.90;99854.92;2210313;81;21503;-67
2021/10/28 02:12:09;;;;;;;54.27;26.07;;;;;;;2.84;75.80;99854.94;2210026;81;21029;-67
2021/10/28 02:15:12;;;;;;;56.15;25.70;;;;;;;2.75;75.75;99850.29;2210364;81;21031;-67
2021/10/28 02:18:14;;;;;;;58.08;28.52;;;;;;;2.69;75.75;99849.08;2210357;81;21445;-66
2021/10/28 02:21:15;;;;;;;62.23;28.30;;;;;;;2.63;75.75;99853.05;2210218;81;21020;-67
2021/10/28 02:24:17;;;;;;;59.93;27.37;;;;;;;2.60;75.83;99851.34;2210338;81;21506;-67
2021/10/28 02:27:18;;;;;;;53.60;26.48;;;;;;;2.59;76.05;99850.92;2210479;81;21020;-67
2021/10/28 02:30:20;;;;;;;59.53;29.10;;;;;;;2.70;75.91;99845.62;2210336;81;21059;-67
2021/10/28 02:33:21;;;;;;;74.20;40.45;;;;;;;2.68;75.94;99847.36;2210439;81;21047;-67
2021/10/28 02:36:23;;;;;;;64.50;34.67;;;;;;;2.69;76.15;99847.78;2210338;81;20980;-67
2021/10/28 02:39:24;;;;;;;54.67;25.57;;;;;;;2.69;75.86;99849.08;2210550;81;21015;-67
2021/10/28 02:42:26;;;;;;;52.67;25.97;;;;;;;2.65;75.52;99848.69;2210301;81;21001;-67
2021/10/28 02:45:27;;;;;;;53.58;23.90;;;;;;;2.57;75.78;99848.80;2210577;81;20984;-67
2021/10/28 02:48:29;;;;;;;49.77;23.77;;;;;;;2.47;75.60;99852.80;2210187;81;20997;-67
2021/10/28 02:51:30;;;;;;;51.92;23.67;;;;;;;2.36;75.49;99855.07;2210309;81;21420;-67
2021/10/28 02:54:32;;;;;;;49.20;22.95;;;;;;;2.28;75.62;99855.58;2210325;81;20980;-67
2021/10/28 02:57:33;;;;;;;52.73;22.97;;;;;;;2.21;75.59;99857.40;2210548;81;21498;-67
2021/10/28 03:00:35;;;;;;;50.98;22.67;;;;;;;2.22;75.58;99863.42;2210136;81;21051;-67
2021/10/28 03:03:38;;;;;;;53.63;23.05;;;;;;;2.14;75.82;99867.81;2210307;81;21460;-67
2021/10/28 03:06:40;;;;;;;52.43;23.42;;;;;;;2.15;75.76;99868.24;2188852;81;21527;-67
2021/10/28 03:09:42;;;;;;;;;;;;;;;2.14;75.72;99869.98;2213053;81;20988;-67
2021/10/28 03:12:45;;;;;;;53.40;24.07;;;;;;;2.16;75.81;99868.67;2210093;81;20085;-67
2021/10/28 03:15:48;;;;;;;56.33;25.88;;;;;;;2.10;75.81;99872.59;2210196;81;21088;-66
2021/10/28 03:28:01;;;;;;;53.40;25.15;;;;;;;2.11;75.36;99862.22;2188907;81;21012;-67
2021/10/28 03:31:03;;;;;;;50.70;23.73;;;;;;;2.07;75.82;99861.41;2210331;81;20985;-67
2021/10/28 03:34:04;;;;;;;62.93;29.07;;;;;;;1.96;75.73;99869.70;2210359;81;21486;-67
2021/10/28 03:37:09;;;;;;;54.25;24.50;;;;;;;1.85;75.79;99867.65;2210382;81;20941;-67
2021/10/28 04:05:42;;;;;;;49.15;22.48;;;;;;;1.76;75.45;99874.21;2163096;82;21064;-67
2021/10/28 04:31:59;;;;;;;58.52;26.45;;;;;;;1.38;75.64;99873.63;2163488;82;21004;-67
2021/10/28 04:35:00;;;;;;;63.80;27.20;;;;;;;1.39;75.89;99874.03;2182173;82;21027;-66
2021/10/28 04:38:01;;;;;;;63.63;27.07;;;;;;;1.43;75.89;99864.09;2182095;82;21622;-67
2021/10/28 04:41:03;;;;;;;63.87;30.02;;;;;;;1.44;75.97;99868.82;2182097;81;21030;-67
2021/10/28 04:44:07;;;;;;;60.15;27.20;;;;;;;1.32;76.05;99870.66;2182141;82;21512;-66
2021/10/28 04:47:07;;;;;;;58.95;25.92;;;;;;;1.25;76.01;99879.31;2163197;82;20973;-66
2021/10/28 04:50:09;;;;;;;53.98;26.85;;;;;;;1.26;76.09;99879.72;2182042;82;21004;-66
2021/10/28 04:53:11;;;;;;;58.73;27.37;;;;;;;1.24;76.17;99880.17;2182137;82;21523;-67
2021/10/28 04:56:12;;;;;;;61.73;27.73;;;;;;;1.16;76.42;99876.32;2181822;82;20996;-66
2021/10/28 04:59:13;;;;;;;60.05;27.87;;;;;;;1.15;76.52;99881.09;2181859;82;21104;-67
2021/10/28 05:02:16;;;;;;;;;;;;;;;1.23;76.42;99884.91;2220405;80;21068;-66
2021/10/28 05:05:18;;;;;;;58.15;27.75;;;;;;;1.31;76.32;99880.55;2220448;80;20141;-67
2021/10/28 05:08:20;;;;;;;61.02;27.45;;;;;;;1.34;76.60;99884.41;2220558;80;21055;-67
2021/10/28 05:11:23;;;;;;;58.55;26.20;;;;;;;1.46;76.28;99885.20;2220574;80;21095;-66
2021/10/28 05:14:24;;;;;;;60.30;27.95;;;;;;;1.42;75.97;99887.37;2190333;80;21036;-66
2021/10/28 05:17:26;;;;;;;58.38;26.85;;;;;;;1.30;76.09;99902.09;2220589;80;21080;-66
2021/10/28 05:20:27;;;;;;;62.40;28.32;;;;;;;1.26;76.16;99896.96;2220519;80;21115;-66
2021/10/28 05:23:29;;;;;;;60.38;27.70;;;;;;;1.18;76.12;99898.31;2220599;80;21071;-67
2021/10/28 05:26:30;;;;;;;64.92;28.87;;;;;;;1.28;76.29;99899.09;2220560;80;21068;-66
2021/10/28 05:29:31;;;;;;;63.35;29.15;;;;;;;1.34;76.44;99902.51;2220517;80;21099;-66
2021/10/28 05:32:33;;;;;;;60.03;27.95;;;;;;;1.42;76.46;99899.02;2220431;80;21654;-66
2021/10/28 05:35:35;;;;;;;59.90;29.02;;;;;;;1.61;76.46;99896.73;2220683;80;21032;-66
2021/10/28 05:38:36;;;;;;;63.23;30.08;;;;;;;1.65;76.14;99898.44;2220536;80;21559;-66
2021/10/28 05:41:38;;;;;;;62.55;28.10;;;;;;;1.66;76.09;99902.72;2220662;80;21087;-66
2021/10/28 05:44:39;;;;;;;58.10;27.32;;;;;;;1.68;75.97;99910.05;2220772;80;21551;-66
2021/10/28 05:47:41;;;;;;;60.80;28.27;;;;;;;1.70;76.47;99912.17;2220904;80;21071;-66
2021/10/28 05:50:45;;;;;;;59.05;27.98;;;;;;;1.78;76.35;99903.50;2220873;80;21602;-66
2021/10/28 05:53:47;;;;;;;59.90;28.35;;;;;;;1.91;76.28;99912.86;2190464;80;21039;-66
2021/10/28 05:56:49;;;;;;;61.18;28.23;;;;;;;2.01;75.97;99911.95;2220294;80;21084;-66
2021/10/28 05:59:50;;;;;;;60.10;28.07;;;;;;;1.99;76.05;99916.25;2220482;80;21083;-66
2021/10/28 06:02:52;;;;;;;64.47;27.93;;;;;;;2.02;75.84;99911.50;2220628;80;21055;-66
2021/10/28 06:05:53;;;;;;;63.58;28.57;;;;;;;2.14;76.24;99921.75;2220751;80;21051;-66
2021/10/28 06:08:56;;;;;;;59.55;27.07;;;;;;;2.27;75.49;99919.91;2189946;80;21032;-66
2021/10/28 06:11:59;;;;;;;61.02;27.55;;;;;;;2.27;75.59;99928.97;2220767;80;21533;-66
2021/10/28 06:15:02;;;;;;;63.65;28.73;;;;;;;2.25;75.50;99929.41;2220782;80;21059;-66
2021/10/28 06:21:07;;;;;;;61.23;29.92;;;;;;;2.24;76.06;99923.38;2190366;80;21008;-66
2021/10/28 06:24:08;;;;;;;58.73;29.15;;;;;;;2.42;76.64;99934.42;2220986;80;20941;-67
2021/10/28 06:27:10;;;;;;;61.35;29.40;;;;;;;2.56;76.48;99939.48;2220676;80;21039;-66
2021/10/28 06:30:11;;;;;;;59.93;30.75;;;;;;;2.55;76.43;99941.19;2220739;80;21486;-66
2021/10/28 06:33:16;;;;;;;61.55;30.20;;;;;;;2.67;76.67;99948.41;2220754;80;21019;-66
2021/10/28 06:36:20;;;;;;;60.90;29.35;;;;;;;2.98;76.93;99941.16;2190359;80;20992;-66
2021/10/28 06:39:19;;;;;;;59.20;29.67;;;;;;;3.31;76.48;99944.19;2190406;80;20996;-66
2021/10/28 06:42:20;;;;;;;63.50;31.07;;;;;;;3.56;76.36;99948.61;2220835;80;21020;-66
2021/10/28 06:45:22;;;;;;;67.17;32.55;;;;;;;3.82;76.16;99951.23;2220485;80;21100;-66
2021/10/28 06:48:24;;;;;;;62.75;31.30;;;;;;;3.98;75.28;99954.48;2220346;80;21100;-66
2021/10/28 06:51:25;;;;;;;59.77;31.17;;;;;;;3.87;74.96;99955.08;2220558;80;21039;-66
2021/10/28 07:03:36;;;;;;;57.62;28.80;;;;;;;4.35;75.93;99953.83;2190696;80;20988;-66
2021/10/28 07:06:39;;;;;;;;;;;;;;;4.29;76.56;99953.95;2222935;80;21100;-66
2021/10/28 07:09:46;;;;;;;;;;;;;;;4.34;76.83;99959.94;2223254;80;20187;-66
2021/10/28 07:12:50;;;;;;;57.27;29.45;;;;;;;4.45;77.07;99952.81;2190609;80;20395;-66
2021/10/28 07:15:55;;;;;;;58.25;29.57;;;;;;;4.65;77.33;99956.31;2189913;80;21016;-65
2021/10/28 07:18:58;;;;;;;57.25;28.12;;;;;;;4.96;77.50;99954.44;2190371;80;21043;-66
2021/10/28 08:20:02;;;;;;;60.30;33.53;;;;;;;9.94;73.90;99915.98;2173999;81;21037;-66
2021/10/28 08:23:07;;;;;;;59.15;34.95;;;;;;;10.16;73.95;99910.73;2173961;81;21063;-66
2021/10/28 08:29:19;;;;;;;63.75;36.80;;;;;;;10.77;73.46;99906.39;2173841;81;21020;-66
2021/10/28 08:32:09;;;;;;;64.45;37.90;;;;;;;11.09;73.31;99910.17;2173859;81;21499;-65
2021/10/28 08:35:10;;;;;;;61.90;36.77;;;;;;;11.40;72.79;99908.77;2201768;81;21008;-65
2021/10/28 08:38:12;;;;;;;61.35;35.50;;;;;;;11.66;72.41;99908.82;2201480;81;21005;-65
2021/10/28 08:41:13;;;;;;;62.47;35.37;;;;;;;11.80;71.85;99905.53;2201724;81;20970;-65
2021/10/28 08:44:17;;;;;;;53.98;30.32;;;;;;;12.01;71.73;99902.80;2201142;81;21716;-65
2021/10/28 08:47:20;;;;;;;55.33;32.67;;;;;;;12.24;71.07;99906.89;2201521;81;20942;-65
2021/10/28 09:24:04;;;;;;;43.08;21.55;;;;;;;13.81;67.53;99874.76;2192804;80;20968;-65
2021/10/28 09:30:09;;;;;;;39.85;21.07;;;;;;;14.16;66.19;99863.92;2192751;80;20949;-65
2021/10/28 09:33:08;;;;;;;39.40;21.33;;;;;;;14.06;66.14;99862.77;2168702;80;21072;-65
2021/10/28 09:43:30;;;;;;;;;;;;;;;14.13;65.88;99867.23;2223483;80;21486;-65
2021/10/28 09:45:22;;;;;;;42.43;23.05;;;;;;;14.21;66.23;99865.83;2192844;80;21024;-65
2021/10/28 09:48:30;;;;;;;40.05;20.97;;;;;;;14.45;64.82;99871.91;2192784;80;20941;-65
2021/10/28 09:51:26;;;;;;;40.17;21.40;;;;;;;14.35;64.76;99866.33;2192888;80;21016;-65
2021/10/28 10:00:35;;;;;;;41.70;21.82;;;;;;;14.72;63.29;99861.94;2192645;80;21028;-65
2021/10/28 10:03:40;;;;;;;46.10;22.15;;;;;;;14.71;63.46;99856.27;2221040;80;21048;-65
2021/10/28 10:06:42;;;;;;;42.50;22.50;;;;;;;14.87;63.16;99855.72;2192663;80;21103;-65
2021/10/28 10:09:43;;;;;;;39.95;20.70;;;;;;;15.00;63.09;99853.63;2192777;80;21019;-65
2021/10/28 10:12:44;;;;;;;42.20;21.47;;;;;;;15.17;62.26;99849.45;2221267;80;20987;-65
2021/10/28 10:15:46;;;;;;;40.35;21.02;;;;;;;15.37;62.70;99841.55;2221021;80;21068;-65
2021/10/28 10:18:48;;;;;;;41.30;21.27;;;;;;;15.55;62.27;99838.66;2221104;80;21531;-65
2021/10/28 10:21:52;;;;;;;39.40;21.33;;;;;;;15.74;61.86;99846.21;2220890;80;21027;-65
2021/10/28 10:28:36;;;;;;;39.05;20.23;;;;;;;15.90;61.06;99835.03;2221237;80;20979;-65
2021/10/28 12:24:15;;;;;;;29.72;12.98;;;;;;;17.99;52.54;99732.67;2201648;81;21033;-66
2021/10/28 12:48:47;;;;;;;28.00;12.13;;;;;;;18.62;51.80;99707.78;2173855;81;21589;-65
2021/10/28 13:06:59;;;;;;;29.30;13.58;;;;;;;19.03;50.80;99706.72;2190231;80;20953;-66
2021/10/28 15:03:03;;;;;;;30.17;11.43;;;;;;;16.15;53.02;99673.70;2188853;81;21536;-66
2021/10/28 15:36:34;;;;;;;94.62;33.25;;;;;;;13.31;58.17;99678.21;2188845;81;20949;-66
2021/10/28 16:01:05;;;;;;;75.53;29.83;;;;;;;11.51;62.00;99689.73;2210531;81;21514;-66
2021/10/28 16:22:12;;;;;;;57.27;24.65;;;;;;;10.42;63.92;99691.95;2173841;81;21040;-66
2021/10/28 16:25:13;;;;;;;48.08;22.80;;;;;;;10.33;64.28;99697.14;2201533;81;21464;-65
2021/10/28 16:28:16;;;;;;;55.73;25.65;;;;;;;10.10;64.75;99696.01;2201465;81;21025;-66
2021/10/28 16:31:18;;;;;;;47.10;22.22;;;;;;;9.85;64.73;99687.94;2201558;81;20986;-66
2021/10/28 16:34:19;;;;;;;39.47;18.47;;;;;;;9.75;65.06;99694.03;2201796;81;21492;-66
2021/10/28 16:37:22;;;;;;;40.67;17.77;;;;;;;9.68;65.73;99683.44;2201770;81;21006;-66
2021/10/28 16:40:24;;;;;;;42.90;19.62;;;;;;;9.60;65.96;99690.80;2201532;81;20989;-66
2021/10/28 16:43:25;;;;;;;48.10;22.42;;;;;;;9.54;65.77;99687.98;2201493;81;21061;-66
2021/10/28 16:46:27;;;;;;;150.55;58.60;;;;;;;9.45;65.51;99685.30;2201499;81;21468;-66
2021/10/28 16:49:28;;;;;;;276.77;103.67;;;;;;;9.27;65.18;99687.38;2201507;81;20974;-66
2021/10/28 16:52:29;;;;;;;115.03;44.23;;;;;;;9.01;65.46;99694.08;2201524;81;21016;-66
2021/10/28 16:55:31;;;;;;;47.55;21.80;;;;;;;8.84;66.18;99689.98;2201625;81;21060;-66
2021/10/28 16:58:33;;;;;;;40.80;18.92;;;;;;;8.82;66.91;99693.10;2201487;81;20996;-66
2021/10/28 17:01:34;;;;;;;44.30;19.90;;;;;;;8.77;66.94;99690.68;2201136;81;21032;-66
2021/10/28 17:04:36;;;;;;;38.10;17.15;;;;;;;8.59;66.91;99692.27;2217503;80;21016;-66
2021/10/28 17:07:37;;;;;;;39.00;16.97;;;;;;;8.42;67.23;99689.39;2220797;80;21549;-66
2021/10/28 17:10:39;;;;;;;43.48;20.43;;;;;;;8.30;67.76;99684.19;2221096;80;21047;-66
2021/10/28 17:13:42;;;;;;;38.53;18.75;;;;;;;8.24;68.33;99690.50;2220847;80;21637;-66
2021/10/28 17:16:46;;;;;;;42.05;20.10;;;;;;;8.17;68.78;99682.95;2220789;80;20992;-65
2021/10/28 17:19:47;;;;;;;46.55;20.72;;;;;;;8.13;69.88;99677.84;2192705;80;21000;-65
2021/10/28 17:22:49;;;;;;;51.40;22.07;;;;;;;8.08;69.36;99674.55;2220837;80;21035;-66
2021/10/28 17:25:56;;;;;;;50.37;20.80;;;;;;;8.09;69.87;99669.72;2221098;80;21523;-66
2021/10/28 17:28:59;;;;;;;47.10;21.70;;;;;;;8.16;69.86;99674.28;2192744;80;21545;-66
2021/10/28 17:31:57;;;;;;;40.35;19.95;;;;;;;8.20;69.58;99670.61;2192947;80;20976;-66
2021/10/28 17:34:59;;;;;;;44.15;20.57;;;;;;;8.18;69.44;99669.83;2221239;80;20989;-66
2021/10/28 17:38:00;;;;;;;43.35;20.35;;;;;;;8.20;69.24;99670.61;2221220;80;20973;-66
2021/10/28 17:41:01;;;;;;;43.85;21.15;;;;;;;8.12;69.35;99671.38;2221127;80;21027;-66
2021/10/28 17:44:04;;;;;;;46.98;23.92;;;;;;;8.05;70.18;99670.74;2221438;80;21517;-66
2021/10/28 17:47:06;;;;;;;51.18;23.90;;;;;;;8.05;70.21;99674.66;2221120;80;20969;-65
2021/10/28 17:50:08;;;;;;;49.77;23.02;;;;;;;8.09;70.23;99675.41;2221176;80;21000;-66
2021/10/28 17:53:09;;;;;;;52.62;26.33;;;;;;;8.16;70.33;99678.20;2221309;80;20968;-66
2021/10/28 17:56:10;;;;;;;54.60;27.30;;;;;;;8.19;70.30;99675.90;2221240;80;21003;-66
2021/10/28 17:59:12;;;;;;;56.30;26.95;;;;;;;8.12;70.48;99677.44;2220949;80;20984;-66
2021/10/28 18:02:14;;;;;;;58.70;27.98;;;;;;;8.05;70.60;99672.52;2220967;80;21552;-66
2021/10/28 18:05:15;;;;;;;62.23;28.77;;;;;;;7.98;70.88;99676.64;2221047;80;21060;-66
2021/10/28 18:08:17;;;;;;;58.28;28.00;;;;;;;7.98;70.98;99675.80;2220962;80;21052;-66
2021/10/28 18:11:19;;;;;;;54.45;27.40;;;;;;;7.95;71.11;99668.92;2221253;80;21024;-66
2021/10/28 18:14:21;;;;;;;55.38;27.30;;;;;;;7.91;71.32;99669.09;2221369;80;20992;-66
2021/10/28 18:17:23;;;;;;;56.00;27.20;;;;;;;7.91;71.23;99667.78;2220542;80;21067;-66
2021/10/28 18:20:24;;;;;;;63.00;29.77;;;;;;;7.86;71.16;99667.09;2221118;80;21007;-66
2021/10/28 18:23:26;;;;;;;55.90;27.20;;;;;;;7.84;71.33;99670.23;2220962;80;21106;-66
2021/10/28 18:26:28;;;;;;;55.03;26.02;;;;;;;7.80;71.54;99665.12;2220968;80;21587;-66
2021/10/28 18:29:29;;;;;;;58.70;27.95;;;;;;;7.75;71.76;99664.42;2221023;80;21092;-66
2021/10/28 18:32:31;;;;;;;59.33;27.17;;;;;;;7.77;71.72;99666.54;2220954;80;21657;-66
2021/10/28 18:35:32;;;;;;;56.88;28.45;;;;;;;7.73;72.02;99663.63;2220960;80;21049;-66
2021/10/28 18:38:34;;;;;;;56.88;26.77;;;;;;;7.69;72.07;99663.81;2220929;80;21052;-66
2021/10/28 18:41:35;;;;;;;56.20;27.77;;;;;;;7.64;72.61;99658.72;2221430;80;20998;-66
2021/10/28 18:44:37;;;;;;;55.73;27.13;;;;;;;7.58;72.74;99661.09;2220966;80;21023;-66
2021/10/28 18:47:38;;;;;;;60.17;28.45;;;;;;;7.57;72.58;99660.72;2220936;80;21027;-66
2021/10/28 18:50:40;;;;;;;53.00;25.17;;;;;;;7.58;72.54;99658.48;2220944;80;21040;-66
2021/10/28 18:53:44;;;;;;;54.33;26.57;;;;;;;7.53;71.92;99653.03;2220950;80;21103;-66
2021/10/28 18:56:45;;;;;;;49.93;26.70;;;;;;;7.40;71.79;99650.02;2192955;80;21020;-66
2021/10/28 18:59:48;;;;;;;72.78;39.73;;;;;;;7.32;72.26;99648.13;2221042;80;21028;-66
2021/10/28 19:02:50;;;;;;;52.75;25.35;;;;;;;7.22;72.52;99647.58;2220787;80;21051;-66
2021/10/28 19:05:54;;;;;;;61.13;27.05;;;;;;;7.16;72.12;99643.42;2220682;80;21624;-66
2021/10/28 19:08:55;;;;;;;54.20;25.82;;;;;;;7.04;72.61;99652.52;2190461;80;21522;-66
2021/10/28 19:11:56;;;;;;;53.87;25.95;;;;;;;6.98;72.38;99647.48;2220707;80;21064;-66
2021/10/28 19:14:58;;;;;;;51.53;24.30;;;;;;;6.90;72.60;99649.52;2220641;80;21591;-65
2021/10/28 19:17:59;;;;;;;50.70;24.05;;;;;;;6.85;72.79;99648.38;2220801;80;21033;-66
2021/10/28 19:21:00;;;;;;;53.10;26.12;;;;;;;6.83;73.30;99647.55;2220940;80;21122;-66
2021/10/28 19:24:02;;;;;;;50.25;23.38;;;;;;;6.76;73.76;99647.34;2220697;80;21060;-66
2021/10/28 19:27:03;;;;;;;48.10;24.27;;;;;;;6.72;73.67;99647.03;2221042;80;21043;-66
2021/10/28 19:30:13;;;;;;;54.00;26.90;;;;;;;6.63;73.37;99649.49;2221075;80;21020;-66
2021/10/28 19:33:13;;;;;;;56.10;28.02;;;;;;;6.55;73.84;99650.17;2190097;80;20989;-66
2021/10/28 19:36:17;;;;;;;51.70;25.70;;;;;;;6.55;74.39;99642.35;2190442;80;20989;-66
2021/10/28 19:48:21;;;;;;;51.97;26.70;;;;;;;6.35;74.25;99632.55;2221236;80;21031;-66
2021/10/28 19:51:23;;;;;;;51.33;26.20;;;;;;;6.30;74.83;99625.34;2220771;80;21015;-65
2021/10/28 19:54:24;;;;;;;51.80;27.30;;;;;;;6.24;75.21;99632.43;2221156;80;21079;-66
2021/10/28 19:57:29;;;;;;;56.83;28.95;;;;;;;6.21;75.28;99632.53;2221005;80;21091;-66
2021/10/28 20:00:34;;;;;;;45.20;22.98;;;;;;;6.24;74.74;99630.28;2190429;80;20945;-66
2021/10/28 20:21:54;;;;;;;57.67;28.27;;;;;;;6.25;76.11;99617.67;2190259;80;21031;-66
2021/10/28 20:24:56;;;;;;;61.68;30.65;;;;;;;6.24;76.52;99616.80;2220649;80;20984;-66
2021/10/28 20:27:57;;;;;;;51.37;27.85;;;;;;;6.19;77.02;99619.14;2220873;80;21067;-66
2021/10/28 20:30:59;;;;;;;61.73;32.17;;;;;;;6.18;77.06;99613.09;2220636;80;21088;-66
2021/10/28 20:37:06;;;;;;;54.53;27.85;;;;;;;6.21;76.39;99609.55;2190230;80;21059;-66
2021/10/28 20:40:07;;;;;;;51.88;27.05;;;;;;;6.14;76.60;99615.84;2220597;80;21443;-65
2021/10/28 20:43:09;;;;;;;58.17;29.90;;;;;;;6.07;76.98;99614.70;2220623;80;21059;-66
2021/10/28 20:46:18;;;;;;;59.53;30.10;;;;;;;6.13;76.96;99607.16;2220727;80;21551;-66
2021/10/28 20:49:14;;;;;;;72.90;35.25;;;;;;;6.11;76.84;99599.00;2190426;80;21008;-66
2021/10/28 20:52:16;;;;;;;62.30;31.65;;;;;;;6.05;77.53;99600.88;2220555;80;21016;-66
2021/10/28 20:55:18;;;;;;;61.88;29.92;;;;;;;6.03;77.41;99597.91;2220616;80;20980;-66
2021/10/28 20:58:19;;;;;;;56.13;27.65;;;;;;;6.01;77.95;99599.27;2220494;80;21041;-65
2021/10/28 21:01:23;;;;;;;55.55;28.98;;;;;;;6.01;77.34;99591.91;2220461;80;21626;-66
2021/10/28 21:04:24;;;;;;;58.63;31.20;;;;;;;5.99;78.05;99591.96;2191415;80;21565;-66
2021/10/28 21:07:27;;;;;;;55.45;27.75;;;;;;;5.99;78.30;99588.05;2223331;80;21043;-66
2021/10/28 21:10:30;;;;;;;53.08;28.50;;;;;;;6.03;78.59;99592.70;2223173;80;21047;-66
2021/10/28 21:13:31;;;;;;;;;;;;;;;6.11;79.07;99578.17;2226128;80;20992;-66
2021/10/28 21:16:33;;;;;;;61.48;29.87;;;;;;;6.24;79.29;99576.41;2223244;80;20104;-66
2021/10/28 21:19:34;;;;;;;55.05;29.45;;;;;;;6.37;79.20;99575.58;2223329;80;20988;-66
2021/10/28 21:22:36;;;;;;;55.45;27.58;;;;;;;6.47;78.91;99580.05;2223201;80;20964;-66
2021/10/28 21:25:37;;;;;;;55.65;27.65;;;;;;;6.51;77.75;99580.83;2223228;80;21483;-66
2021/10/28 21:28:38;;;;;;;54.30;28.95;;;;;;;6.41;77.52;99584.17;2223459;80;21015;-66
2021/10/28 21:31:40;;;;;;;56.05;28.52;;;;;;;6.37;77.78;99583.40;2223180;80;21546;-65
2021/10/28 21:34:41;;;;;;;59.20;28.50;;;;;;;6.37;77.83;99579.95;2223356;80;21042;-66
2021/10/28 21:37:43;;;;;;;58.15;29.05;;;;;;;6.36;77.63;99581.69;2223182;80;20945;-66
2021/10/28 21:40:45;;;;;;;63.15;32.60;;;;;;;6.33;78.01;99571.83;2223433;80;20988;-65
2021/10/28 21:43:49;;;;;;;58.87;31.17;;;;;;;6.33;78.15;99575.73;2223204;80;20988;-66
2021/10/28 21:46:49;;;;;;;62.88;30.90;;;;;;;6.36;78.66;99576.47;2193176;80;21526;-66
2021/10/28 21:49:52;;;;;;;64.80;32.08;;;;;;;6.47;78.96;99578.75;2223575;80;21007;-66
2021/10/28 21:52:58;;;;;;;;;;;;;;;6.65;78.87;99579.05;2225984;80;21542;-66
2021/10/28 21:56:09;;;;;;;57.90;29.63;;;;;;;6.66;78.00;99577.69;2193239;80;20131;-66
2021/10/28 22:02:19;;;;;;;58.45;30.23;;;;;;;6.14;78.10;99578.06;2192971;80;21052;-66
2021/10/28 22:26:31;;;;;;;55.33;29.32;;;;;;;5.63;79.21;99567.81;2193002;80;21115;-66
2021/10/28 22:29:32;;;;;;;62.88;31.82;;;;;;;5.64;78.49;99561.72;2223093;80;21030;-66
2021/10/28 22:32:36;;;;;;;63.00;31.57;;;;;;;5.59;78.67;99559.69;2223360;80;21494;-66
2021/10/28 22:35:44;;;;;;;57.93;31.05;;;;;;;5.54;78.68;99558.06;2193378;80;20976;-66
2021/10/28 22:38:46;;;;;;;66.77;35.58;;;;;;;5.57;78.88;99554.98;2193532;80;21003;-66
2021/10/28 22:41:43;;;;;;;60.70;33.15;;;;;;;5.54;79.39;99554.16;2193140;80;21040;-66
2021/10/28 22:44:45;;;;;;;68.35;32.45;;;;;;;5.54;79.12;99554.16;2223362;80;21031;-66
2021/10/28 22:47:46;;;;;;;62.43;31.87;;;;;;;5.49;79.24;99553.45;2223346;80;20956;-66
2021/10/28 22:50:48;;;;;;;62.00;33.23;;;;;;;5.50;79.06;99548.66;2223400;80;21027;-66
2021/10/28 22:53:49;;;;;;;58.90;29.35;;;;;;;5.48;79.74;99549.59;2223490;80;20976;-66
2021/10/28 22:56:51;;;;;;;58.98;30.82;;;;;;;5.42;79.41;99545.42;2223293;80;21071;-66
2021/10/28 22:59:53;;;;;;;64.10;30.10;;;;;;;5.42;79.81;99540.67;2223464;80;21023;-66
2021/10/28 23:21:12;;;;;;;63.38;32.85;;;;;;;5.34;79.43;99532.64;2163327;82;21012;-66
2021/10/28 23:24:13;;;;;;;67.70;34.13;;;;;;;5.33;79.76;99529.63;2182080;82;20950;-66
2021/10/28 23:27:15;;;;;;;64.87;34.67;;;;;;;5.31;79.99;99525.36;2182165;82;21531;-66
2021/10/28 23:30:16;;;;;;;65.90;35.35;;;;;;;5.32;79.91;99529.21;2182147;82;20981;-66
2021/10/28 23:33:18;;;;;;;67.05;35.58;;;;;;;5.40;80.01;99525.53;2182132;82;21507;-66
2021/10/28 23:36:20;;;;;;;65.85;35.08;;;;;;;5.44;79.92;99521.95;2182464;82;20988;-65
2021/10/28 23:39:21;;;;;;;67.37;35.30;;;;;;;5.47;79.71;99512.30;2182121;82;20976;-66
2021/10/28 23:42:23;;;;;;;66.17;34.75;;;;;;;5.52;79.65;99516.93;2182577;82;20961;-66
2021/10/28 23:45:24;;;;;;;70.35;35.30;;;;;;;5.47;79.90;99512.30;2182097;82;20973;-66
2021/10/28 23:48:26;;;;;;;68.25;36.08;;;;;;;5.51;79.73;99510.47;2182014;82;20972;-66
2021/10/28 23:51:28;;;;;;;64.85;35.20;;;;;;;5.55;79.58;99512.94;2182024;82;21004;-66
2021/10/28 23:54:29;;;;;;;75.28;37.90;;;;;;;5.50;79.44;99512.23;2182240;82;21037;-66
2021/10/28 23:57:31;;;;;;;70.67;37.33;;;;;;;5.43;79.63;99507.23;2181971;82;21004;-66
